Airfield :
LOGIN :

Register | Disclaimer

   EN    FR    IT 

 










Legend :    VFR   Marginal VFR   IFR   Intensive IFR   Very Intensive IFR
Visi :
Ceiling :
>= 8 km
>= 3000ft
5 to 8 km
1000 to 3000 ft
1500m to 5 km
500 to 1000 ft
800 to 1500m
200 to 500 ft
< 800m
< 200 ft
Symbols :   Thunderstorms  Fog  Heavy snow  Heavy precipitations  Wind > 20 kt
SIGMETs :     Misc.  Thunderstorms  Icing  Turbulence  Mountain Waves  Volcanic Ashes







- Airport Elevation : 0 ft


ETEB - Ansbach Army Heliport

CURRENT METAR :
  • 220028Z AUTO 20008KT 9999 BKN024 BKN044 BKN065 09/08 A3006 RMK AO2 CIG 024V045 BKN024 V SCT SLP187 $

EXPIRED METARs :
  • 212358Z AUTO 21008KT 9999 SCT036 09/08 A3006 RMK AO2 RAE02DZB02E04DZB17E35RAB35E55 SLP187 P0001 60007 T00890077 10153 20089 50008 $
  • 212317Z AUTO 25008KT 9999 -DZ OVC070 09/08 A3003 RMK AO2 RAE02DZB02E04DZB17 SLP177
  • 212304Z AUTO 26008KT 9999 BKN070 09/08 A3003 RMK AO2 RAE02DZB02E04 SLP179
  • 212258Z AUTO 26010KT 9999 -RA BKN070 09/08 A3003 RMK AO2 RAE07DZB07E12DZB31E35RAB35 SLP179 P0000 T00920078 401840092 $
  • 212231Z AUTO 27009KT 9999 -DZ FEW011 OVC070 09/08 A3003 RMK AO2 RAE07DZB07E12DZB31 SLP179
  • 212212Z AUTO 25009KT 9999 BKN011 BKN035 BKN065 10/08 A3003 RMK AO2 RAE07DZB07E12 CIG 011V032 BKN011 V SCT SLP179
  • 212158Z AUTO 26011G18KT 9999 -RA SCT010 BKN035 BKN060 10/08 A3004 RMK AO2 RAB42 SLP183 P0001 T00980084 $
  • 212142Z AUTO 26010KT 9999 -RA SCT009 OVC055 10/09 A3003 RMK AO2 RAB42 SLP179

Expired Forecast.
No reported NOTAMs for that airfield.



MET'MAP, your aeronautical weather chart ! - Copyright ORBIFLY December 2007 - Disclaimer

ORBIFLY MET'MAP TEAM :

Programming & Development : Alexandra Zaïnal
Concept & Development : Baudouin d'Aumeries
Co-Development & Prog : Marc-Olivier Méhu
Technical & hardware support : Manuel Goepfert

Contact : metmap@orbifly.com




SOURCES & CREDITS :

   NOAA